Current Weather

Boire Field Airport

Boire Field Airport, New Hampshire (KASH)

Report from: Sunday, May 22, 2022 2:56 AM EDT
Current time: Sunday, May 22, 2022 4:08 AM EDT

Nearby weather
Weather history
Weather forecast

Temperature18.3°C (64.9°F)
Dew point18.3°C (64.9°F)
Winds Calm
Visibility7 mi. (11.3 km)
Clouds Sky clear
Altimeter29.99 in.Hg (1016 mB)
Relative humidity100 %
Density altitude595 ft. (181 m)
Sea-level pressure101.6 kPa (1016 mB, 29.99 in.Hg)
Remarks Fully automated report
Automated weather observing station with precipitation discriminator
Flight conditions Visual Meteorological Conditions
Raw dataKASH 220656Z AUTO 00000KT 7SM CLR 18/18 A2999 RMK AO2 SLP157 T01830183
An error has occurred. This application may no longer respond until reloaded. Reload 🗙